sensor_id;sensor_type;location;lat;lon;timestamp;P1;durP1;ratioP1;P2;durP2;ratioP2
19089;SDS011;9677;50.656;13.064;2023-04-06T00:00:26;11.90;;;10.80;;
19089;SDS011;9677;50.656;13.064;2023-04-06T00:02:55;11.80;;;10.70;;
19089;SDS011;9677;50.656;13.064;2023-04-06T00:05:23;11.40;;;10.40;;
19089;SDS011;9677;50.656;13.064;2023-04-06T00:07:53;11.50;;;10.40;;
19089;SDS011;9677;50.656;13.064;2023-04-06T00:10:22;11.20;;;10.20;;
19089;SDS011;9677;50.656;13.064;2023-04-06T00:12:51;11.50;;;10.40;;
19089;SDS011;9677;50.656;13.064;2023-04-06T00:15:19;12.57;;;11.47;;
19089;SDS011;9677;50.656;13.064;2023-04-06T00:17:48;11.90;;;10.80;;
19089;SDS011;9677;50.656;13.064;2023-04-06T00:20:17;11.57;;;10.47;;
19089;SDS011;9677;50.656;13.064;2023-04-06T00:22:46;11.50;;;10.50;;
19089;SDS011;9677;50.656;13.064;2023-04-06T00:25:15;11.80;;;10.80;;
19089;SDS011;9677;50.656;13.064;2023-04-06T00:27:44;11.60;;;10.50;;
19089;SDS011;9677;50.656;13.064;2023-04-06T00:30:13;12.50;;;11.23;;
19089;SDS011;9677;50.656;13.064;2023-04-06T00:32:41;12.23;;;11.10;;
19089;SDS011;9677;50.656;13.064;2023-04-06T00:35:10;12.20;;;11.10;;
19089;SDS011;9677;50.656;13.064;2023-04-06T00:37:38;12.03;;;10.93;;
19089;SDS011;9677;50.656;13.064;2023-04-06T00:40:07;12.20;;;11.00;;
19089;SDS011;9677;50.656;13.064;2023-04-06T00:42:38;11.90;;;10.80;;
19089;SDS011;9677;50.656;13.064;2023-04-06T00:45:07;12.47;;;11.37;;
19089;SDS011;9677;50.656;13.064;2023-04-06T00:47:38;11.73;;;10.73;;
19089;SDS011;9677;50.656;13.064;2023-04-06T00:50:07;12.07;;;11.03;;
19089;SDS011;9677;50.656;13.064;2023-04-06T00:52:36;11.83;;;10.73;;
19089;SDS011;9677;50.656;13.064;2023-04-06T00:55:07;11.90;;;10.80;;
19089;SDS011;9677;50.656;13.064;2023-04-06T00:57:41;12.00;;;10.90;;
19089;SDS011;9677;50.656;13.064;2023-04-06T01:00:10;11.63;;;10.53;;
19089;SDS011;9677;50.656;13.064;2023-04-06T01:02:43;12.63;;;10.70;;
19089;SDS011;9677;50.656;13.064;2023-04-06T01:05:15;11.70;;;10.60;;
19089;SDS011;9677;50.656;13.064;2023-04-06T01:07:51;11.63;;;10.53;;
19089;SDS011;9677;50.656;13.064;2023-04-06T01:10:23;12.30;;;11.20;;
19089;SDS011;9677;50.656;13.064;2023-04-06T01:13:00;11.57;;;10.50;;
19089;SDS011;9677;50.656;13.064;2023-04-06T01:15:43;12.10;;;11.00;;
19089;SDS011;9677;50.656;13.064;2023-04-06T01:18:16;11.70;;;10.60;;
19089;SDS011;9677;50.656;13.064;2023-04-06T01:20:55;13.07;;;11.87;;
19089;SDS011;9677;50.656;13.064;2023-04-06T01:23:26;11.77;;;10.77;;
19089;SDS011;9677;50.656;13.064;2023-04-06T01:25:54;11.30;;;10.30;;
19089;SDS011;9677;50.656;13.064;2023-04-06T01:28:23;11.80;;;10.80;;
19089;SDS011;9677;50.656;13.064;2023-04-06T01:31:15;12.37;;;11.27;;
19089;SDS011;9677;50.656;13.064;2023-04-06T01:33:48;11.77;;;10.70;;
19089;SDS011;9677;50.656;13.064;2023-04-06T01:36:20;11.47;;;10.47;;
19089;SDS011;9677;50.656;13.064;2023-04-06T01:38:58;11.70;;;10.50;;
19089;SDS011;9677;50.656;13.064;2023-04-06T01:41:32;11.60;;;10.60;;
19089;SDS011;9677;50.656;13.064;2023-04-06T01:44:01;12.27;;;11.07;;
19089;SDS011;9677;50.656;13.064;2023-04-06T01:46:30;11.90;;;10.90;;
19089;SDS011;9677;50.656;13.064;2023-04-06T01:49:01;11.83;;;10.73;;
19089;SDS011;9677;50.656;13.064;2023-04-06T01:51:33;12.10;;;11.00;;
19089;SDS011;9677;50.656;13.064;2023-04-06T01:54:06;12.10;;;11.10;;
19089;SDS011;9677;50.656;13.064;2023-04-06T01:56:53;11.07;;;10.17;;
19089;SDS011;9677;50.656;13.064;2023-04-06T01:59:33;12.33;;;11.23;;
19089;SDS011;9677;50.656;13.064;2023-04-06T02:02:08;11.93;;;10.83;;
19089;SDS011;9677;50.656;13.064;2023-04-06T02:04:38;11.63;;;10.63;;
19089;SDS011;9677;50.656;13.064;2023-04-06T02:07:10;11.33;;;10.23;;
19089;SDS011;9677;50.656;13.064;2023-04-06T02:09:40;12.17;;;11.07;;
19089;SDS011;9677;50.656;13.064;2023-04-06T02:12:15;11.33;;;10.33;;
19089;SDS011;9677;50.656;13.064;2023-04-06T02:14:43;11.50;;;10.50;;
19089;SDS011;9677;50.656;13.064;2023-04-06T02:17:12;11.53;;;10.53;;
19089;SDS011;9677;50.656;13.064;2023-04-06T02:19:40;11.50;;;10.50;;
19089;SDS011;9677;50.656;13.064;2023-04-06T02:22:08;12.10;;;11.10;;
19089;SDS011;9677;50.656;13.064;2023-04-06T02:24:37;11.43;;;10.43;;
19089;SDS011;9677;50.656;13.064;2023-04-06T02:27:06;12.97;;;11.77;;
19089;SDS011;9677;50.656;13.064;2023-04-06T02:29:35;12.30;;;11.20;;
19089;SDS011;9677;50.656;13.064;2023-04-06T02:32:03;12.07;;;11.07;;
19089;SDS011;9677;50.656;13.064;2023-04-06T02:34:32;11.83;;;10.83;;
19089;SDS011;9677;50.656;13.064;2023-04-06T02:37:00;11.50;;;10.50;;
19089;SDS011;9677;50.656;13.064;2023-04-06T02:39:29;11.90;;;10.80;;
19089;SDS011;9677;50.656;13.064;2023-04-06T02:41:58;14.70;;;11.10;;
19089;SDS011;9677;50.656;13.064;2023-04-06T02:44:28;11.43;;;10.43;;
19089;SDS011;9677;50.656;13.064;2023-04-06T02:46:56;12.77;;;11.43;;
19089;SDS011;9677;50.656;13.064;2023-04-06T02:49:25;11.83;;;10.83;;
19089;SDS011;9677;50.656;13.064;2023-04-06T02:51:56;11.60;;;10.60;;
19089;SDS011;9677;50.656;13.064;2023-04-06T02:54:28;12.13;;;11.03;;
19089;SDS011;9677;50.656;13.064;2023-04-06T02:56:57;11.60;;;10.57;;
19089;SDS011;9677;50.656;13.064;2023-04-06T02:59:36;12.23;;;11.10;;
19089;SDS011;9677;50.656;13.064;2023-04-06T03:02:14;11.30;;;10.30;;
19089;SDS011;9677;50.656;13.064;2023-04-06T03:04:43;12.27;;;11.17;;
19089;SDS011;9677;50.656;13.064;2023-04-06T03:07:21;11.97;;;10.97;;
19089;SDS011;9677;50.656;13.064;2023-04-06T03:09:50;11.83;;;10.73;;
19089;SDS011;9677;50.656;13.064;2023-04-06T03:12:18;12.87;;;11.77;;
19089;SDS011;9677;50.656;13.064;2023-04-06T03:15:07;11.70;;;10.60;;
19089;SDS011;9677;50.656;13.064;2023-04-06T03:17:42;11.60;;;10.60;;
19089;SDS011;9677;50.656;13.064;2023-04-06T03:20:24;12.50;;;11.40;;
19089;SDS011;9677;50.656;13.064;2023-04-06T03:22:53;12.40;;;11.30;;
19089;SDS011;9677;50.656;13.064;2023-04-06T03:25:26;12.17;;;11.07;;
19089;SDS011;9677;50.656;13.064;2023-04-06T03:27:58;13.17;;;12.00;;
19089;SDS011;9677;50.656;13.064;2023-04-06T03:30:28;11.47;;;10.47;;
19089;SDS011;9677;50.656;13.064;2023-04-06T03:32:57;11.80;;;10.80;;
19089;SDS011;9677;50.656;13.064;2023-04-06T03:35:30;12.23;;;11.20;;
19089;SDS011;9677;50.656;13.064;2023-04-06T03:37:58;11.73;;;10.73;;
19089;SDS011;9677;50.656;13.064;2023-04-06T03:40:27;12.27;;;11.17;;
19089;SDS011;9677;50.656;13.064;2023-04-06T03:42:56;12.33;;;11.23;;
19089;SDS011;9677;50.656;13.064;2023-04-06T03:45:25;12.30;;;11.10;;
19089;SDS011;9677;50.656;13.064;2023-04-06T03:47:55;11.70;;;10.70;;
19089;SDS011;9677;50.656;13.064;2023-04-06T03:50:23;12.20;;;11.10;;
19089;SDS011;9677;50.656;13.064;2023-04-06T03:52:52;12.27;;;11.17;;
19089;SDS011;9677;50.656;13.064;2023-04-06T03:55:20;11.93;;;10.93;;
19089;SDS011;9677;50.656;13.064;2023-04-06T03:57:49;12.07;;;11.00;;
19089;SDS011;9677;50.656;13.064;2023-04-06T04:00:17;12.30;;;11.20;;
19089;SDS011;9677;50.656;13.064;2023-04-06T04:02:46;12.17;;;11.17;;
19089;SDS011;9677;50.656;13.064;2023-04-06T04:05:16;12.67;;;11.47;;
19089;SDS011;9677;50.656;13.064;2023-04-06T04:07:44;12.77;;;11.57;;
19089;SDS011;9677;50.656;13.064;2023-04-06T04:10:13;12.30;;;11.07;;
19089;SDS011;9677;50.656;13.064;2023-04-06T04:12:41;13.90;;;12.70;;
19089;SDS011;9677;50.656;13.064;2023-04-06T04:15:10;12.07;;;10.97;;
19089;SDS011;9677;50.656;13.064;2023-04-06T04:17:38;11.80;;;10.80;;
19089;SDS011;9677;50.656;13.064;2023-04-06T04:20:10;12.23;;;11.13;;
19089;SDS011;9677;50.656;13.064;2023-04-06T04:22:40;12.50;;;11.40;;
19089;SDS011;9677;50.656;13.064;2023-04-06T04:25:09;12.43;;;11.33;;
19089;SDS011;9677;50.656;13.064;2023-04-06T04:27:43;12.17;;;11.07;;
19089;SDS011;9677;50.656;13.064;2023-04-06T04:30:13;11.67;;;10.57;;
19089;SDS011;9677;50.656;13.064;2023-04-06T04:32:41;12.47;;;11.37;;
19089;SDS011;9677;50.656;13.064;2023-04-06T04:35:11;12.93;;;11.73;;
19089;SDS011;9677;50.656;13.064;2023-04-06T04:37:42;12.80;;;11.60;;
19089;SDS011;9677;50.656;13.064;2023-04-06T04:40:11;12.83;;;11.73;;
19089;SDS011;9677;50.656;13.064;2023-04-06T04:42:53;12.13;;;11.03;;
19089;SDS011;9677;50.656;13.064;2023-04-06T04:45:28;12.77;;;11.67;;
19089;SDS011;9677;50.656;13.064;2023-04-06T04:48:00;12.00;;;10.90;;
19089;SDS011;9677;50.656;13.064;2023-04-06T04:50:44;12.07;;;10.97;;
19089;SDS011;9677;50.656;13.064;2023-04-06T04:53:15;13.20;;;12.00;;
19089;SDS011;9677;50.656;13.064;2023-04-06T04:55:45;12.30;;;11.30;;
19089;SDS011;9677;50.656;13.064;2023-04-06T04:58:14;12.40;;;11.30;;
19089;SDS011;9677;50.656;13.064;2023-04-06T05:00:49;12.53;;;11.40;;
19089;SDS011;9677;50.656;13.064;2023-04-06T05:03:18;11.90;;;10.70;;
19089;SDS011;9677;50.656;13.064;2023-04-06T05:05:57;11.77;;;10.77;;
19089;SDS011;9677;50.656;13.064;2023-04-06T05:08:31;11.80;;;10.80;;
19089;SDS011;9677;50.656;13.064;2023-04-06T05:11:00;12.70;;;11.60;;
19089;SDS011;9677;50.656;13.064;2023-04-06T05:13:33;12.30;;;11.30;;
19089;SDS011;9677;50.656;13.064;2023-04-06T05:16:07;11.67;;;10.67;;
19089;SDS011;9677;50.656;13.064;2023-04-06T05:18:37;11.63;;;10.63;;
19089;SDS011;9677;50.656;13.064;2023-04-06T05:21:06;11.93;;;10.90;;
19089;SDS011;9677;50.656;13.064;2023-04-06T05:23:53;12.73;;;11.63;;
19089;SDS011;9677;50.656;13.064;2023-04-06T05:26:22;11.90;;;10.70;;
19089;SDS011;9677;50.656;13.064;2023-04-06T05:28:56;12.67;;;11.57;;
19089;SDS011;9677;50.656;13.064;2023-04-06T05:31:25;12.50;;;11.30;;
19089;SDS011;9677;50.656;13.064;2023-04-06T05:33:54;12.10;;;11.00;;
19089;SDS011;9677;50.656;13.064;2023-04-06T05:36:30;14.07;;;11.80;;
19089;SDS011;9677;50.656;13.064;2023-04-06T05:39:06;12.30;;;11.30;;
19089;SDS011;9677;50.656;13.064;2023-04-06T05:41:42;11.47;;;10.47;;
19089;SDS011;9677;50.656;13.064;2023-04-06T05:44:12;12.60;;;11.50;;
19089;SDS011;9677;50.656;13.064;2023-04-06T05:46:44;13.00;;;11.50;;
19089;SDS011;9677;50.656;13.064;2023-04-06T05:49:15;15.40;;;11.20;;
19089;SDS011;9677;50.656;13.064;2023-04-06T05:51:43;12.00;;;10.93;;
19089;SDS011;9677;50.656;13.064;2023-04-06T05:54:13;12.07;;;11.07;;
19089;SDS011;9677;50.656;13.064;2023-04-06T05:56:42;12.07;;;10.97;;
19089;SDS011;9677;50.656;13.064;2023-04-06T05:59:11;11.93;;;10.83;;
19089;SDS011;9677;50.656;13.064;2023-04-06T06:01:40;12.13;;;11.03;;
19089;SDS011;9677;50.656;13.064;2023-04-06T06:04:09;12.27;;;11.10;;
19089;SDS011;9677;50.656;13.064;2023-04-06T06:06:39;12.47;;;11.40;;
19089;SDS011;9677;50.656;13.064;2023-04-06T06:09:14;12.17;;;10.97;;
19089;SDS011;9677;50.656;13.064;2023-04-06T06:11:56;12.40;;;11.37;;
19089;SDS011;9677;50.656;13.064;2023-04-06T06:14:26;11.70;;;10.60;;
19089;SDS011;9677;50.656;13.064;2023-04-06T06:16:55;12.33;;;11.23;;
19089;SDS011;9677;50.656;13.064;2023-04-06T06:19:23;11.90;;;10.83;;
19089;SDS011;9677;50.656;13.064;2023-04-06T06:21:55;11.60;;;10.60;;
19089;SDS011;9677;50.656;13.064;2023-04-06T06:24:25;12.40;;;11.40;;
19089;SDS011;9677;50.656;13.064;2023-04-06T06:26:58;12.20;;;11.10;;
19089;SDS011;9677;50.656;13.064;2023-04-06T06:29:29;11.37;;;10.30;;
19089;SDS011;9677;50.656;13.064;2023-04-06T06:31:58;11.97;;;10.87;;
19089;SDS011;9677;50.656;13.064;2023-04-06T06:34:27;11.70;;;10.70;;
19089;SDS011;9677;50.656;13.064;2023-04-06T06:36:58;11.73;;;10.70;;
19089;SDS011;9677;50.656;13.064;2023-04-06T06:39:28;12.07;;;11.07;;
19089;SDS011;9677;50.656;13.064;2023-04-06T06:41:57;11.70;;;10.70;;
19089;SDS011;9677;50.656;13.064;2023-04-06T06:44:44;11.67;;;10.67;;
19089;SDS011;9677;50.656;13.064;2023-04-06T06:47:12;11.87;;;10.87;;
19089;SDS011;9677;50.656;13.064;2023-04-06T06:49:43;11.83;;;10.63;;
19089;SDS011;9677;50.656;13.064;2023-04-06T06:52:11;11.67;;;10.57;;
19089;SDS011;9677;50.656;13.064;2023-04-06T06:54:41;12.30;;;11.07;;
19089;SDS011;9677;50.656;13.064;2023-04-06T06:57:10;11.93;;;10.93;;
19089;SDS011;9677;50.656;13.064;2023-04-06T06:59:38;11.70;;;10.60;;
19089;SDS011;9677;50.656;13.064;2023-04-06T07:02:07;11.40;;;10.40;;
19089;SDS011;9677;50.656;13.064;2023-04-06T07:04:35;11.30;;;10.20;;
19089;SDS011;9677;50.656;13.064;2023-04-06T07:07:04;11.90;;;10.70;;
19089;SDS011;9677;50.656;13.064;2023-04-06T07:09:32;12.10;;;11.00;;
19089;SDS011;9677;50.656;13.064;2023-04-06T07:12:02;12.10;;;11.00;;
19089;SDS011;9677;50.656;13.064;2023-04-06T07:14:30;11.30;;;10.30;;
19089;SDS011;9677;50.656;13.064;2023-04-06T07:16:59;12.20;;;11.10;;
19089;SDS011;9677;50.656;13.064;2023-04-06T07:19:28;11.83;;;10.83;;
19089;SDS011;9677;50.656;13.064;2023-04-06T07:21:56;12.73;;;11.07;;
19089;SDS011;9677;50.656;13.064;2023-04-06T07:24:25;12.23;;;11.03;;
19089;SDS011;9677;50.656;13.064;2023-04-06T07:26:54;12.37;;;11.27;;
19089;SDS011;9677;50.656;13.064;2023-04-06T07:29:24;11.30;;;10.30;;
19089;SDS011;9677;50.656;13.064;2023-04-06T07:31:53;12.40;;;11.30;;
19089;SDS011;9677;50.656;13.064;2023-04-06T07:34:22;13.63;;;11.30;;
19089;SDS011;9677;50.656;13.064;2023-04-06T07:36:50;12.03;;;10.93;;
19089;SDS011;9677;50.656;13.064;2023-04-06T07:39:20;11.60;;;10.50;;
19089;SDS011;9677;50.656;13.064;2023-04-06T07:41:48;11.90;;;10.80;;
19089;SDS011;9677;50.656;13.064;2023-04-06T07:44:17;11.53;;;10.53;;
19089;SDS011;9677;50.656;13.064;2023-04-06T07:46:47;11.83;;;10.83;;
19089;SDS011;9677;50.656;13.064;2023-04-06T07:49:16;11.40;;;10.40;;
19089;SDS011;9677;50.656;13.064;2023-04-06T07:51:45;11.77;;;10.77;;
19089;SDS011;9677;50.656;13.064;2023-04-06T07:54:13;11.97;;;10.87;;
19089;SDS011;9677;50.656;13.064;2023-04-06T07:56:41;11.87;;;10.87;;
19089;SDS011;9677;50.656;13.064;2023-04-06T07:59:10;11.83;;;10.73;;
19089;SDS011;9677;50.656;13.064;2023-04-06T08:01:40;11.40;;;10.40;;
19089;SDS011;9677;50.656;13.064;2023-04-06T08:04:09;11.30;;;10.10;;
19089;SDS011;9677;50.656;13.064;2023-04-06T08:06:38;11.17;;;10.27;;
19089;SDS011;9677;50.656;13.064;2023-04-06T08:09:07;11.60;;;10.60;;
19089;SDS011;9677;50.656;13.064;2023-04-06T08:11:35;11.43;;;10.43;;
19089;SDS011;9677;50.656;13.064;2023-04-06T08:14:04;12.03;;;10.93;;
19089;SDS011;9677;50.656;13.064;2023-04-06T08:16:33;11.23;;;10.23;;
19089;SDS011;9677;50.656;13.064;2023-04-06T08:19:01;11.33;;;10.33;;
19089;SDS011;9677;50.656;13.064;2023-04-06T08:21:32;11.37;;;10.37;;
19089;SDS011;9677;50.656;13.064;2023-04-06T08:24:00;11.30;;;10.30;;
19089;SDS011;9677;50.656;13.064;2023-04-06T08:26:29;11.00;;;10.00;;
19089;SDS011;9677;50.656;13.064;2023-04-06T08:28:58;11.23;;;10.23;;
19089;SDS011;9677;50.656;13.064;2023-04-06T08:31:26;10.63;;;9.73;;
19089;SDS011;9677;50.656;13.064;2023-04-06T08:33:55;10.93;;;9.93;;
19089;SDS011;9677;50.656;13.064;2023-04-06T08:36:23;11.10;;;10.20;;
19089;SDS011;9677;50.656;13.064;2023-04-06T08:38:53;10.93;;;9.93;;
19089;SDS011;9677;50.656;13.064;2023-04-06T08:41:21;11.23;;;10.23;;
19089;SDS011;9677;50.656;13.064;2023-04-06T08:43:51;12.10;;;10.90;;
19089;SDS011;9677;50.656;13.064;2023-04-06T08:46:25;11.43;;;10.33;;
19089;SDS011;9677;50.656;13.064;2023-04-06T08:48:56;11.03;;;10.03;;
19089;SDS011;9677;50.656;13.064;2023-04-06T08:51:26;11.40;;;10.40;;
19089;SDS011;9677;50.656;13.064;2023-04-06T08:53:58;11.50;;;10.50;;
19089;SDS011;9677;50.656;13.064;2023-04-06T08:56:27;11.23;;;10.13;;
19089;SDS011;9677;50.656;13.064;2023-04-06T08:58:56;12.53;;;10.40;;
19089;SDS011;9677;50.656;13.064;2023-04-06T09:01:26;11.07;;;10.07;;
19089;SDS011;9677;50.656;13.064;2023-04-06T09:03:56;11.87;;;10.77;;
19089;SDS011;9677;50.656;13.064;2023-04-06T09:06:27;11.20;;;10.20;;
19089;SDS011;9677;50.656;13.064;2023-04-06T09:08:58;10.67;;;9.77;;
19089;SDS011;9677;50.656;13.064;2023-04-06T09:11:26;11.33;;;10.33;;
19089;SDS011;9677;50.656;13.064;2023-04-06T09:13:55;11.23;;;10.23;;
19089;SDS011;9677;50.656;13.064;2023-04-06T09:16:24;11.20;;;10.20;;
19089;SDS011;9677;50.656;13.064;2023-04-06T09:18:53;11.10;;;10.10;;
19089;SDS011;9677;50.656;13.064;2023-04-06T09:21:21;10.90;;;9.93;;
19089;SDS011;9677;50.656;13.064;2023-04-06T09:23:59;11.00;;;10.10;;
19089;SDS011;9677;50.656;13.064;2023-04-06T09:26:28;11.10;;;10.10;;
19089;SDS011;9677;50.656;13.064;2023-04-06T09:29:00;11.43;;;10.23;;
19089;SDS011;9677;50.656;13.064;2023-04-06T09:31:31;11.13;;;10.13;;
19089;SDS011;9677;50.656;13.064;2023-04-06T09:34:00;11.60;;;10.50;;
19089;SDS011;9677;50.656;13.064;2023-04-06T09:36:29;12.00;;;10.90;;
19089;SDS011;9677;50.656;13.064;2023-04-06T09:39:00;11.13;;;10.13;;
19089;SDS011;9677;50.656;13.064;2023-04-06T09:41:31;11.30;;;10.30;;
19089;SDS011;9677;50.656;13.064;2023-04-06T09:44:02;11.13;;;10.03;;
19089;SDS011;9677;50.656;13.064;2023-04-06T09:46:32;11.13;;;10.10;;
19089;SDS011;9677;50.656;13.064;2023-04-06T09:49:21;11.23;;;10.20;;
19089;SDS011;9677;50.656;13.064;2023-04-06T09:51:53;12.17;;;11.03;;
19089;SDS011;9677;50.656;13.064;2023-04-06T09:54:26;11.30;;;10.30;;
19089;SDS011;9677;50.656;13.064;2023-04-06T09:56:58;11.40;;;10.40;;
19089;SDS011;9677;50.656;13.064;2023-04-06T09:59:38;10.97;;;9.97;;
19089;SDS011;9677;50.656;13.064;2023-04-06T10:02:23;10.60;;;9.60;;
19089;SDS011;9677;50.656;13.064;2023-04-06T10:05:02;10.83;;;9.73;;
19089;SDS011;9677;50.656;13.064;2023-04-06T10:07:39;10.57;;;9.50;;
19089;SDS011;9677;50.656;13.064;2023-04-06T10:10:27;10.83;;;9.83;;
19089;SDS011;9677;50.656;13.064;2023-04-06T10:12:57;10.50;;;9.50;;
19089;SDS011;9677;50.656;13.064;2023-04-06T10:15:27;11.17;;;10.17;;
19089;SDS011;9677;50.656;13.064;2023-04-06T10:17:56;11.63;;;10.53;;
19089;SDS011;9677;50.656;13.064;2023-04-06T10:20:27;10.43;;;9.53;;
19089;SDS011;9677;50.656;13.064;2023-04-06T10:23:04;10.97;;;9.90;;
19089;SDS011;9677;50.656;13.064;2023-04-06T10:25:51;11.40;;;10.30;;
19089;SDS011;9677;50.656;13.064;2023-04-06T10:28:21;10.63;;;9.63;;
19089;SDS011;9677;50.656;13.064;2023-04-06T10:30:56;10.57;;;9.57;;
19089;SDS011;9677;50.656;13.064;2023-04-06T10:33:26;10.80;;;9.70;;
19089;SDS011;9677;50.656;13.064;2023-04-06T10:35:55;10.10;;;9.20;;
19089;SDS011;9677;50.656;13.064;2023-04-06T10:38:33;10.60;;;9.60;;
19089;SDS011;9677;50.656;13.064;2023-04-06T10:41:08;10.97;;;9.80;;
19089;SDS011;9677;50.656;13.064;2023-04-06T10:43:39;9.93;;;9.03;;
19089;SDS011;9677;50.656;13.064;2023-04-06T10:46:09;9.90;;;9.00;;
19089;SDS011;9677;50.656;13.064;2023-04-06T10:48:38;10.30;;;9.40;;
19089;SDS011;9677;50.656;13.064;2023-04-06T10:51:09;10.37;;;9.30;;
19089;SDS011;9677;50.656;13.064;2023-04-06T10:53:40;10.43;;;9.43;;
19089;SDS011;9677;50.656;13.064;2023-04-06T10:56:12;11.90;;;9.30;;
19089;SDS011;9677;50.656;13.064;2023-04-06T10:58:45;10.17;;;9.20;;
19089;SDS011;9677;50.656;13.064;2023-04-06T11:01:14;10.63;;;9.63;;
19089;SDS011;9677;50.656;13.064;2023-04-06T11:03:44;10.43;;;9.43;;
19089;SDS011;9677;50.656;13.064;2023-04-06T11:06:19;10.47;;;9.47;;
19089;SDS011;9677;50.656;13.064;2023-04-06T11:08:49;10.50;;;9.50;;
19089;SDS011;9677;50.656;13.064;2023-04-06T11:11:19;10.60;;;9.50;;
19089;SDS011;9677;50.656;13.064;2023-04-06T11:13:50;10.20;;;9.30;;
19089;SDS011;9677;50.656;13.064;2023-04-06T11:16:20;10.27;;;9.27;;
19089;SDS011;9677;50.656;13.064;2023-04-06T11:18:51;10.23;;;9.23;;
19089;SDS011;9677;50.656;13.064;2023-04-06T11:21:31;10.30;;;9.30;;
19089;SDS011;9677;50.656;13.064;2023-04-06T11:24:08;9.97;;;8.97;;
19089;SDS011;9677;50.656;13.064;2023-04-06T11:26:40;10.00;;;9.10;;
19089;SDS011;9677;50.656;13.064;2023-04-06T11:29:11;9.90;;;9.00;;
19089;SDS011;9677;50.656;13.064;2023-04-06T11:31:41;9.80;;;8.90;;
19089;SDS011;9677;50.656;13.064;2023-04-06T11:34:13;10.60;;;9.50;;
19089;SDS011;9677;50.656;13.064;2023-04-06T11:36:45;10.00;;;9.10;;
19089;SDS011;9677;50.656;13.064;2023-04-06T11:39:17;10.57;;;8.67;;
19089;SDS011;9677;50.656;13.064;2023-04-06T11:41:48;9.97;;;9.00;;
19089;SDS011;9677;50.656;13.064;2023-04-06T11:44:28;10.03;;;9.10;;
19089;SDS011;9677;50.656;13.064;2023-04-06T11:47:00;9.80;;;8.90;;
19089;SDS011;9677;50.656;13.064;2023-04-06T11:49:29;10.30;;;9.20;;
19089;SDS011;9677;50.656;13.064;2023-04-06T11:51:59;10.03;;;9.13;;
19089;SDS011;9677;50.656;13.064;2023-04-06T11:54:31;10.53;;;9.53;;
19089;SDS011;9677;50.656;13.064;2023-04-06T11:57:03;9.80;;;8.90;;
19089;SDS011;9677;50.656;13.064;2023-04-06T11:59:32;9.80;;;8.87;;
19089;SDS011;9677;50.656;13.064;2023-04-06T12:02:02;9.80;;;8.90;;
19089;SDS011;9677;50.656;13.064;2023-04-06T12:04:30;9.60;;;8.70;;
19089;SDS011;9677;50.656;13.064;2023-04-06T12:06:59;10.63;;;9.57;;
19089;SDS011;9677;50.656;13.064;2023-04-06T12:09:28;10.27;;;9.37;;
19089;SDS011;9677;50.656;13.064;2023-04-06T12:11:56;9.80;;;8.90;;
19089;SDS011;9677;50.656;13.064;2023-04-06T12:14:26;10.10;;;9.20;;
19089;SDS011;9677;50.656;13.064;2023-04-06T12:16:57;10.10;;;9.10;;
19089;SDS011;9677;50.656;13.064;2023-04-06T12:19:25;10.13;;;9.13;;
19089;SDS011;9677;50.656;13.064;2023-04-06T12:21:56;9.73;;;8.83;;
19089;SDS011;9677;50.656;13.064;2023-04-06T12:24:25;10.03;;;9.13;;
19089;SDS011;9677;50.656;13.064;2023-04-06T12:26:54;10.00;;;9.10;;
19089;SDS011;9677;50.656;13.064;2023-04-06T12:29:35;9.90;;;9.00;;
19089;SDS011;9677;50.656;13.064;2023-04-06T12:32:04;9.80;;;8.90;;
19089;SDS011;9677;50.656;13.064;2023-04-06T12:34:33;10.40;;;9.30;;
19089;SDS011;9677;50.656;13.064;2023-04-06T12:37:01;9.80;;;8.90;;
19089;SDS011;9677;50.656;13.064;2023-04-06T12:39:29;10.07;;;9.17;;
19089;SDS011;9677;50.656;13.064;2023-04-06T12:41:58;10.20;;;9.20;;
19089;SDS011;9677;50.656;13.064;2023-04-06T12:44:26;9.93;;;9.03;;
19089;SDS011;9677;50.656;13.064;2023-04-06T12:46:56;9.63;;;8.73;;
19089;SDS011;9677;50.656;13.064;2023-04-06T12:49:25;9.87;;;8.97;;
19089;SDS011;9677;50.656;13.064;2023-04-06T12:51:55;9.47;;;8.67;;
19089;SDS011;9677;50.656;13.064;2023-04-06T12:54:23;9.57;;;8.67;;
19089;SDS011;9677;50.656;13.064;2023-04-06T12:56:53;9.90;;;9.00;;
19089;SDS011;9677;50.656;13.064;2023-04-06T12:59:22;10.20;;;9.20;;
19089;SDS011;9677;50.656;13.064;2023-04-06T13:01:51;9.60;;;8.80;;
19089;SDS011;9677;50.656;13.064;2023-04-06T13:04:21;9.93;;;9.00;;
19089;SDS011;9677;50.656;13.064;2023-04-06T13:06:50;9.77;;;8.90;;
19089;SDS011;9677;50.656;13.064;2023-04-06T13:09:19;10.10;;;9.20;;
19089;SDS011;9677;50.656;13.064;2023-04-06T13:11:47;10.50;;;9.40;;
19089;SDS011;9677;50.656;13.064;2023-04-06T13:14:15;10.37;;;9.47;;
19089;SDS011;9677;50.656;13.064;2023-04-06T13:16:44;10.27;;;9.20;;
19089;SDS011;9677;50.656;13.064;2023-04-06T13:19:13;9.80;;;8.90;;
19089;SDS011;9677;50.656;13.064;2023-04-06T13:21:43;10.20;;;9.30;;
19089;SDS011;9677;50.656;13.064;2023-04-06T13:24:11;10.10;;;9.20;;
19089;SDS011;9677;50.656;13.064;2023-04-06T13:26:43;9.83;;;8.93;;
19089;SDS011;9677;50.656;13.064;2023-04-06T13:29:11;9.87;;;8.97;;
19089;SDS011;9677;50.656;13.064;2023-04-06T13:31:39;10.27;;;9.27;;
19089;SDS011;9677;50.656;13.064;2023-04-06T13:34:08;10.20;;;9.20;;
19089;SDS011;9677;50.656;13.064;2023-04-06T13:36:37;9.90;;;9.00;;
19089;SDS011;9677;50.656;13.064;2023-04-06T13:39:09;9.80;;;8.90;;
19089;SDS011;9677;50.656;13.064;2023-04-06T13:41:37;9.40;;;8.60;;
19089;SDS011;9677;50.656;13.064;2023-04-06T13:44:06;10.20;;;9.20;;
19089;SDS011;9677;50.656;13.064;2023-04-06T13:46:34;9.90;;;9.00;;
19089;SDS011;9677;50.656;13.064;2023-04-06T13:49:03;9.87;;;8.97;;
19089;SDS011;9677;50.656;13.064;2023-04-06T13:51:32;9.70;;;8.80;;
19089;SDS011;9677;50.656;13.064;2023-04-06T13:54:00;9.80;;;8.90;;
19089;SDS011;9677;50.656;13.064;2023-04-06T13:56:30;9.77;;;8.87;;
19089;SDS011;9677;50.656;13.064;2023-04-06T13:58:59;10.20;;;9.20;;
19089;SDS011;9677;50.656;13.064;2023-04-06T14:01:27;10.20;;;9.30;;
19089;SDS011;9677;50.656;13.064;2023-04-06T14:03:55;10.30;;;9.40;;
19089;SDS011;9677;50.656;13.064;2023-04-06T14:06:24;10.30;;;9.30;;
19089;SDS011;9677;50.656;13.064;2023-04-06T14:08:57;9.90;;;9.00;;
19089;SDS011;9677;50.656;13.064;2023-04-06T14:11:26;10.10;;;9.20;;
19089;SDS011;9677;50.656;13.064;2023-04-06T14:13:55;10.00;;;9.00;;
19089;SDS011;9677;50.656;13.064;2023-04-06T14:16:24;10.10;;;9.20;;
19089;SDS011;9677;50.656;13.064;2023-04-06T14:18:53;10.10;;;9.20;;
19089;SDS011;9677;50.656;13.064;2023-04-06T14:21:24;10.37;;;9.47;;
19089;SDS011;9677;50.656;13.064;2023-04-06T14:23:52;10.23;;;9.33;;
19089;SDS011;9677;50.656;13.064;2023-04-06T14:26:25;10.23;;;9.27;;
19089;SDS011;9677;50.656;13.064;2023-04-06T14:28:54;10.63;;;9.63;;
19089;SDS011;9677;50.656;13.064;2023-04-06T14:31:23;10.30;;;9.30;;
19089;SDS011;9677;50.656;13.064;2023-04-06T14:33:52;10.30;;;9.23;;
19089;SDS011;9677;50.656;13.064;2023-04-06T14:36:21;10.00;;;9.10;;
19089;SDS011;9677;50.656;13.064;2023-04-06T14:38:50;10.80;;;9.80;;
19089;SDS011;9677;50.656;13.064;2023-04-06T14:41:19;9.97;;;9.07;;
19089;SDS011;9677;50.656;13.064;2023-04-06T14:43:51;10.30;;;9.30;;
19089;SDS011;9677;50.656;13.064;2023-04-06T14:46:21;10.23;;;9.30;;
19089;SDS011;9677;50.656;13.064;2023-04-06T14:48:49;10.70;;;9.20;;